sensor_id;sensor_type;location;lat;lon;timestamp;P1;P4;P2;P0;N10;N4;N25;N1;N05;TS
66834;SPS30;53743;51.100;5.874;2024-03-29T00:00:53;1.02;0.96;0.84;0.66;5.29;5.28;5.25;5.10;4.26;0.67
66834;SPS30;53743;51.100;5.874;2024-03-29T00:01:55;0.79;0.75;0.66;0.52;4.17;4.17;4.14;4.03;3.38;0.66
66834;SPS30;53743;51.100;5.874;2024-03-29T00:02:56;0.75;0.71;0.62;0.49;3.95;3.95;3.93;3.81;3.20;0.66
66834;SPS30;53743;51.100;5.874;2024-03-29T00:03:57;0.90;0.85;0.76;0.61;4.86;4.86;4.83;4.71;3.97;0.65
66834;SPS30;53743;51.100;5.874;2024-03-29T00:04:58;0.71;0.67;0.60;0.48;3.83;3.82;3.81;3.71;3.13;0.65
66834;SPS30;53743;51.100;5.874;2024-03-29T00:05:59;1.01;0.95;0.85;0.68;5.44;5.43;5.41;5.26;4.44;0.66
66834;SPS30;53743;51.100;5.874;2024-03-29T00:07:01;1.57;1.48;1.32;1.06;8.46;8.45;8.41;8.19;6.90;0.65
66834;SPS30;53743;51.100;5.874;2024-03-29T00:08:02;1.02;0.97;0.86;0.69;5.55;5.55;5.52;5.38;4.54;0.66
66834;SPS30;53743;51.100;5.874;2024-03-29T00:09:04;0.94;0.89;0.79;0.63;5.07;5.06;5.04;4.91;4.14;0.66
66834;SPS30;53743;51.100;5.874;2024-03-29T00:10:05;1.02;0.97;0.86;0.70;5.56;5.56;5.53;5.39;4.55;0.65
66834;SPS30;53743;51.100;5.874;2024-03-29T00:11:07;1.09;1.04;0.92;0.74;5.94;5.94;5.91;5.76;4.86;0.65
66834;SPS30;53743;51.100;5.874;2024-03-29T00:12:08;0.69;0.66;0.58;0.47;3.77;3.77;3.75;3.66;3.09;0.64
66834;SPS30;53743;51.100;5.874;2024-03-29T00:13:10;0.90;0.85;0.76;0.61;4.85;4.84;4.82;4.69;3.96;0.65
66834;SPS30;53743;51.100;5.874;2024-03-29T00:14:11;1.04;0.98;0.86;0.68;5.44;5.43;5.41;5.25;4.41;0.66
66834;SPS30;53743;51.100;5.874;2024-03-29T00:15:12;1.09;1.02;0.90;0.70;5.63;5.62;5.59;5.42;4.54;0.67
66834;SPS30;53743;51.100;5.874;2024-03-29T00:16:13;0.59;0.55;0.49;0.38;3.06;3.05;3.04;2.95;2.47;0.66
66834;SPS30;53743;51.100;5.874;2024-03-29T00:17:14;0.82;0.77;0.67;0.53;4.23;4.23;4.20;4.08;3.41;0.66
66834;SPS30;53743;51.100;5.874;2024-03-29T00:18:15;0.97;0.91;0.80;0.62;4.96;4.96;4.93;4.78;3.99;0.67
66834;SPS30;53743;51.100;5.874;2024-03-29T00:19:17;0.87;0.81;0.71;0.55;4.43;4.42;4.40;4.26;3.55;0.67
66834;SPS30;53743;51.100;5.874;2024-03-29T00:20:18;0.77;0.73;0.63;0.49;3.92;3.92;3.90;3.77;3.15;0.67
66834;SPS30;53743;51.100;5.874;2024-03-29T00:21:19;0.68;0.63;0.55;0.42;3.39;3.39;3.37;3.26;2.71;0.67
66834;SPS30;53743;51.100;5.874;2024-03-29T00:22:20;0.93;0.87;0.75;0.58;4.63;4.62;4.59;4.44;3.68;0.68
66834;SPS30;53743;51.100;5.874;2024-03-29T00:23:21;1.07;1.00;0.87;0.68;5.41;5.40;5.37;5.20;4.33;0.66
66834;SPS30;53743;51.100;5.874;2024-03-29T00:24:22;1.27;1.19;1.03;0.80;6.42;6.41;6.38;6.17;5.14;0.66
66834;SPS30;53743;51.100;5.874;2024-03-29T00:25:23;1.00;0.94;0.81;0.63;5.04;5.04;5.01;4.85;4.04;0.66
66834;SPS30;53743;51.100;5.874;2024-03-29T00:26:24;0.93;0.87;0.76;0.59;4.71;4.70;4.68;4.53;3.77;0.66
66834;SPS30;53743;51.100;5.874;2024-03-29T00:27:25;1.06;1.00;0.87;0.68;5.41;5.40;5.37;5.20;4.33;0.66
66834;SPS30;53743;51.100;5.874;2024-03-29T00:28:28;0.76;0.71;0.62;0.48;3.83;3.83;3.81;3.68;3.07;0.66
66834;SPS30;53743;51.100;5.874;2024-03-29T00:29:29;0.70;0.66;0.58;0.45;3.61;3.61;3.59;3.48;2.91;0.66
66834;SPS30;53743;51.100;5.874;2024-03-29T00:30:30;0.97;0.91;0.80;0.63;5.03;5.02;5.00;4.85;4.06;0.66
66834;SPS30;53743;51.100;5.874;2024-03-29T00:31:31;0.91;0.85;0.75;0.59;4.69;4.68;4.66;4.52;3.78;0.66
66834;SPS30;53743;51.100;5.874;2024-03-29T00:32:32;1.10;1.04;0.91;0.72;5.72;5.72;5.69;5.52;4.62;0.66
66834;SPS30;53743;51.100;5.874;2024-03-29T00:33:33;0.90;0.85;0.75;0.59;4.72;4.71;4.69;4.55;3.81;0.66
66834;SPS30;53743;51.100;5.874;2024-03-29T00:34:35;0.83;0.78;0.69;0.54;4.34;4.34;4.31;4.19;3.51;0.66
66834;SPS30;53743;51.100;5.874;2024-03-29T00:35:36;0.81;0.76;0.67;0.53;4.20;4.20;4.18;4.05;3.40;0.66
66834;SPS30;53743;51.100;5.874;2024-03-29T00:36:37;0.61;0.58;0.50;0.39;3.16;3.16;3.14;3.04;2.54;0.66
66834;SPS30;53743;51.100;5.874;2024-03-29T00:37:38;0.75;0.71;0.62;0.48;3.87;3.87;3.84;3.73;3.11;0.66
66834;SPS30;53743;51.100;5.874;2024-03-29T00:38:39;0.81;0.76;0.67;0.52;4.17;4.17;4.14;4.02;3.35;0.66
66834;SPS30;53743;51.100;5.874;2024-03-29T00:39:40;0.78;0.73;0.64;0.50;4.02;4.01;3.99;3.87;3.24;0.66
66834;SPS30;53743;51.100;5.874;2024-03-29T00:40:41;0.78;0.73;0.64;0.50;4.04;4.03;4.01;3.89;3.25;0.65
66834;SPS30;53743;51.100;5.874;2024-03-29T00:41:42;0.70;0.65;0.57;0.45;3.60;3.59;3.57;3.47;2.90;0.65
66834;SPS30;53743;51.100;5.874;2024-03-29T00:42:43;1.11;1.04;0.91;0.71;5.66;5.65;5.62;5.45;4.55;0.66
66834;SPS30;53743;51.100;5.874;2024-03-29T00:43:45;1.09;1.02;0.88;0.68;5.45;5.44;5.41;5.23;4.35;0.67
66834;SPS30;53743;51.100;5.874;2024-03-29T00:44:46;0.83;0.77;0.67;0.52;4.18;4.17;4.15;4.02;3.35;0.65
66834;SPS30;53743;51.100;5.874;2024-03-29T00:45:48;0.95;0.89;0.78;0.61;4.85;4.85;4.82;4.67;3.90;0.65
66834;SPS30;53743;51.100;5.874;2024-03-29T00:46:49;0.83;0.78;0.68;0.53;4.28;4.27;4.25;4.12;3.45;0.65
66834;SPS30;53743;51.100;5.874;2024-03-29T00:47:50;0.84;0.79;0.69;0.54;4.32;4.32;4.29;4.17;3.48;0.65
66834;SPS30;53743;51.100;5.874;2024-03-29T00:48:51;0.84;0.79;0.69;0.54;4.32;4.31;4.29;4.16;3.47;0.66
66834;SPS30;53743;51.100;5.874;2024-03-29T00:49:52;1.20;1.13;0.98;0.75;6.03;6.02;5.99;5.79;4.81;0.66
66834;SPS30;53743;51.100;5.874;2024-03-29T00:50:53;0.90;0.84;0.72;0.55;4.38;4.38;4.35;4.20;3.47;0.67
66834;SPS30;53743;51.100;5.874;2024-03-29T00:51:54;0.89;0.83;0.71;0.54;4.30;4.30;4.27;4.11;3.39;0.68
66834;SPS30;53743;51.100;5.874;2024-03-29T00:52:55;0.88;0.82;0.70;0.53;4.23;4.22;4.19;4.04;3.32;0.68
66834;SPS30;53743;51.100;5.874;2024-03-29T00:53:56;0.70;0.65;0.56;0.42;3.36;3.35;3.33;3.21;2.64;0.68
66834;SPS30;53743;51.100;5.874;2024-03-29T00:54:57;1.03;0.96;0.82;0.61;4.91;4.90;4.87;4.68;3.85;0.68
66834;SPS30;53743;51.100;5.874;2024-03-29T00:55:58;1.00;0.93;0.80;0.60;4.81;4.80;4.77;4.59;3.78;0.68
66834;SPS30;53743;51.100;5.874;2024-03-29T00:56:59;0.67;0.63;0.54;0.40;3.23;3.22;3.20;3.08;2.54;0.68
66834;SPS30;53743;51.100;5.874;2024-03-29T00:58:01;0.92;0.86;0.73;0.55;4.38;4.38;4.35;4.18;3.44;0.68
66834;SPS30;53743;51.100;5.874;2024-03-29T00:59:03;1.06;0.98;0.84;0.62;5.00;4.99;4.96;4.77;3.91;0.69
66834;SPS30;53743;51.100;5.874;2024-03-29T01:00:04;0.99;0.92;0.78;0.58;4.62;4.61;4.58;4.40;3.60;0.69
66834;SPS30;53743;51.100;5.874;2024-03-29T01:01:07;1.10;1.02;0.86;0.63;5.05;5.04;5.00;4.80;3.92;0.70
66834;SPS30;53743;51.100;5.874;2024-03-29T01:02:08;0.89;0.82;0.69;0.50;4.04;4.03;4.00;3.83;3.12;0.70
66834;SPS30;53743;51.100;5.874;2024-03-29T01:03:09;0.86;0.80;0.67;0.49;3.95;3.95;3.92;3.75;3.06;0.70
66834;SPS30;53743;51.100;5.874;2024-03-29T01:04:11;0.77;0.71;0.60;0.44;3.53;3.53;3.50;3.35;2.73;0.71
66834;SPS30;53743;51.100;5.874;2024-03-29T01:05:12;0.94;0.87;0.73;0.54;4.33;4.33;4.29;4.12;3.36;0.71
66834;SPS30;53743;51.100;5.874;2024-03-29T01:06:13;0.95;0.88;0.74;0.55;4.38;4.37;4.34;4.16;3.40;0.70
66834;SPS30;53743;51.100;5.874;2024-03-29T01:07:15;1.08;1.00;0.85;0.63;5.05;5.05;5.01;4.81;3.95;0.69
66834;SPS30;53743;51.100;5.874;2024-03-29T01:08:16;1.06;0.98;0.83;0.62;4.94;4.93;4.90;4.70;3.85;0.70
66834;SPS30;53743;51.100;5.874;2024-03-29T01:09:17;0.72;0.67;0.56;0.42;3.34;3.34;3.31;3.18;2.60;0.70
66834;SPS30;53743;51.100;5.874;2024-03-29T01:10:18;0.91;0.84;0.71;0.53;4.26;4.25;4.22;4.06;3.33;0.70
66834;SPS30;53743;51.100;5.874;2024-03-29T01:11:19;0.84;0.78;0.67;0.50;3.99;3.98;3.95;3.80;3.12;0.69
66834;SPS30;53743;51.100;5.874;2024-03-29T01:12:20;1.05;0.97;0.83;0.63;5.05;5.04;5.00;4.82;3.98;0.68
66834;SPS30;53743;51.100;5.874;2024-03-29T01:13:22;0.85;0.79;0.68;0.52;4.13;4.12;4.09;3.95;3.26;0.68
66834;SPS30;53743;51.100;5.874;2024-03-29T01:14:24;0.92;0.86;0.74;0.56;4.48;4.47;4.44;4.29;3.54;0.68
66834;SPS30;53743;51.100;5.874;2024-03-29T01:15:25;0.89;0.83;0.71;0.54;4.32;4.31;4.29;4.13;3.41;0.68
66834;SPS30;53743;51.100;5.874;2024-03-29T01:16:26;0.97;0.90;0.77;0.58;4.61;4.60;4.57;4.40;3.62;0.69
66834;SPS30;53743;51.100;5.874;2024-03-29T01:17:28;0.93;0.86;0.74;0.55;4.41;4.40;4.37;4.21;3.46;0.70
66834;SPS30;53743;51.100;5.874;2024-03-29T01:18:29;1.15;1.07;0.91;0.68;5.47;5.46;5.42;5.22;4.29;0.70
66834;SPS30;53743;51.100;5.874;2024-03-29T01:19:30;0.93;0.87;0.75;0.57;4.55;4.54;4.51;4.35;3.59;0.69
66834;SPS30;53743;51.100;5.874;2024-03-29T01:20:31;0.91;0.86;0.74;0.57;4.56;4.56;4.53;4.38;3.64;0.67
66834;SPS30;53743;51.100;5.874;2024-03-29T01:21:32;0.67;0.63;0.54;0.42;3.38;3.37;3.35;3.25;2.70;0.67
66834;SPS30;53743;51.100;5.874;2024-03-29T01:22:34;0.55;0.51;0.45;0.35;2.78;2.78;2.76;2.67;2.23;0.66
66834;SPS30;53743;51.100;5.874;2024-03-29T01:23:35;0.74;0.69;0.61;0.48;3.81;3.80;3.78;3.67;3.07;0.66
66834;SPS30;53743;51.100;5.874;2024-03-29T01:24:36;1.06;0.99;0.87;0.69;5.49;5.48;5.45;5.29;4.43;0.65
66834;SPS30;53743;51.100;5.874;2024-03-29T01:25:37;1.00;0.94;0.82;0.64;5.16;5.15;5.12;4.97;4.16;0.65
66834;SPS30;53743;51.100;5.874;2024-03-29T01:26:38;1.01;0.95;0.83;0.65;5.19;5.18;5.15;4.99;4.17;0.65
66834;SPS30;53743;51.100;5.874;2024-03-29T01:27:40;0.86;0.80;0.70;0.54;4.36;4.36;4.33;4.20;3.50;0.66
66834;SPS30;53743;51.100;5.874;2024-03-29T01:28:41;0.95;0.89;0.77;0.60;4.83;4.82;4.80;4.65;3.88;0.65
66834;SPS30;53743;51.100;5.874;2024-03-29T01:29:43;0.76;0.71;0.62;0.49;3.91;3.91;3.89;3.77;3.15;0.64
66834;SPS30;53743;51.100;5.874;2024-03-29T01:30:51;0.80;0.75;0.66;0.52;4.18;4.17;4.15;4.03;3.38;0.64
66834;SPS30;53743;51.100;5.874;2024-03-29T01:31:52;0.78;0.74;0.65;0.52;4.15;4.14;4.12;4.00;3.36;0.63
66834;SPS30;53743;51.100;5.874;2024-03-29T01:32:54;0.65;0.61;0.54;0.43;3.47;3.47;3.45;3.36;2.83;0.63
66834;SPS30;53743;51.100;5.874;2024-03-29T01:33:55;0.87;0.82;0.72;0.58;4.61;4.60;4.58;4.45;3.75;0.63
66834;SPS30;53743;51.100;5.874;2024-03-29T01:34:56;0.84;0.79;0.70;0.55;4.42;4.42;4.40;4.27;3.58;0.64
66834;SPS30;53743;51.100;5.874;2024-03-29T01:35:57;0.70;0.66;0.58;0.46;3.71;3.70;3.68;3.58;3.01;0.63
66834;SPS30;53743;51.100;5.874;2024-03-29T01:36:58;0.72;0.68;0.61;0.49;3.88;3.88;3.86;3.76;3.17;0.64
66834;SPS30;53743;51.100;5.874;2024-03-29T01:37:59;0.68;0.65;0.57;0.46;3.66;3.66;3.64;3.54;2.99;0.64
66834;SPS30;53743;51.100;5.874;2024-03-29T01:39:00;0.87;0.82;0.73;0.58;4.67;4.67;4.64;4.52;3.81;0.64
66834;SPS30;53743;51.100;5.874;2024-03-29T01:40:01;0.83;0.78;0.69;0.56;4.46;4.46;4.43;4.32;3.64;0.64
66834;SPS30;53743;51.100;5.874;2024-03-29T01:41:03;0.91;0.86;0.77;0.62;4.95;4.94;4.92;4.79;4.04;0.64
66834;SPS30;53743;51.100;5.874;2024-03-29T01:42:04;0.82;0.77;0.68;0.54;4.35;4.35;4.33;4.21;3.54;0.65
66834;SPS30;53743;51.100;5.874;2024-03-29T01:43:06;0.96;0.90;0.79;0.63;5.00;5.00;4.97;4.83;4.05;0.66
66834;SPS30;53743;51.100;5.874;2024-03-29T01:44:09;0.77;0.72;0.63;0.50;3.98;3.97;3.95;3.83;3.21;0.66
66834;SPS30;53743;51.100;5.874;2024-03-29T01:45:11;0.64;0.60;0.53;0.41;3.29;3.28;3.26;3.17;2.64;0.66
66834;SPS30;53743;51.100;5.874;2024-03-29T01:46:13;0.74;0.70;0.61;0.48;3.84;3.83;3.81;3.69;3.09;0.66
66834;SPS30;53743;51.100;5.874;2024-03-29T01:47:15;1.04;0.98;0.87;0.68;5.46;5.46;5.43;5.27;4.42;0.65
66834;SPS30;53743;51.100;5.874;2024-03-29T01:48:19;0.89;0.83;0.73;0.58;4.60;4.60;4.57;4.44;3.71;0.66
66834;SPS30;53743;51.100;5.874;2024-03-29T01:49:22;1.12;1.05;0.92;0.72;5.80;5.79;5.76;5.59;4.68;0.66
66834;SPS30;53743;51.100;5.874;2024-03-29T01:50:24;0.77;0.73;0.64;0.50;4.04;4.03;4.01;3.90;3.26;0.66
66834;SPS30;53743;51.100;5.874;2024-03-29T01:51:26;1.07;1.01;0.89;0.70;5.58;5.58;5.55;5.39;4.52;0.66
66834;SPS30;53743;51.100;5.874;2024-03-29T01:52:27;0.79;0.74;0.65;0.52;4.15;4.14;4.12;4.01;3.36;0.65
66834;SPS30;53743;51.100;5.874;2024-03-29T01:53:31;0.84;0.79;0.70;0.55;4.42;4.42;4.39;4.27;3.59;0.65
66834;SPS30;53743;51.100;5.874;2024-03-29T01:54:33;0.54;0.51;0.45;0.36;2.86;2.86;2.85;2.77;2.33;0.65
66834;SPS30;53743;51.100;5.874;2024-03-29T01:55:35;0.64;0.61;0.54;0.43;3.44;3.44;3.42;3.33;2.80;0.65
66834;SPS30;53743;51.100;5.874;2024-03-29T01:56:36;0.88;0.83;0.74;0.59;4.71;4.70;4.68;4.55;3.83;0.65
66834;SPS30;53743;51.100;5.874;2024-03-29T01:57:41;0.94;0.89;0.79;0.64;5.10;5.10;5.07;4.94;4.17;0.64
66834;SPS30;53743;51.100;5.874;2024-03-29T01:58:43;0.74;0.70;0.62;0.50;4.01;4.00;3.99;3.88;3.28;0.64
66834;SPS30;53743;51.100;5.874;2024-03-29T01:59:46;0.63;0.60;0.53;0.43;3.43;3.42;3.41;3.32;2.80;0.64
66834;SPS30;53743;51.100;5.874;2024-03-29T02:00:50;0.80;0.76;0.67;0.55;4.37;4.36;4.34;4.23;3.58;0.64
66834;SPS30;53743;51.100;5.874;2024-03-29T02:01:54;0.84;0.80;0.71;0.57;4.57;4.57;4.54;4.43;3.74;0.65
66834;SPS30;53743;51.100;5.874;2024-03-29T02:02:56;0.81;0.76;0.68;0.54;4.33;4.32;4.30;4.19;3.52;0.66
66834;SPS30;53743;51.100;5.874;2024-03-29T02:03:57;0.96;0.90;0.80;0.63;5.08;5.07;5.04;4.90;4.12;0.66
66834;SPS30;53743;51.100;5.874;2024-03-29T02:04:59;0.76;0.72;0.63;0.50;4.02;4.01;3.99;3.88;3.26;0.66
66834;SPS30;53743;51.100;5.874;2024-03-29T02:06:02;0.92;0.87;0.77;0.62;4.93;4.93;4.90;4.77;4.02;0.65
66834;SPS30;53743;51.100;5.874;2024-03-29T02:07:05;1.14;1.08;0.95;0.76;6.08;6.07;6.04;5.87;4.94;0.66
66834;SPS30;53743;51.100;5.874;2024-03-29T02:08:08;0.89;0.84;0.74;0.59;4.71;4.71;4.68;4.55;3.82;0.67
66834;SPS30;53743;51.100;5.874;2024-03-29T02:09:11;0.72;0.68;0.60;0.47;3.77;3.77;3.75;3.64;3.06;0.67
66834;SPS30;53743;51.100;5.874;2024-03-29T02:10:12;0.68;0.64;0.56;0.44;3.52;3.52;3.50;3.40;2.84;0.67
66834;SPS30;53743;51.100;5.874;2024-03-29T02:11:15;0.83;0.78;0.69;0.54;4.34;4.34;4.31;4.19;3.51;0.66
66834;SPS30;53743;51.100;5.874;2024-03-29T02:12:16;0.88;0.83;0.73;0.58;4.63;4.62;4.60;4.47;3.76;0.67
66834;SPS30;53743;51.100;5.874;2024-03-29T02:13:18;1.14;1.08;0.95;0.75;6.04;6.03;6.00;5.83;4.90;0.67
66834;SPS30;53743;51.100;5.874;2024-03-29T02:14:19;0.92;0.87;0.76;0.60;4.84;4.83;4.81;4.67;3.92;0.67
66834;SPS30;53743;51.100;5.874;2024-03-29T02:15:20;0.82;0.77;0.68;0.53;4.27;4.27;4.25;4.12;3.46;0.67
66834;SPS30;53743;51.100;5.874;2024-03-29T02:16:23;0.82;0.78;0.69;0.55;4.38;4.38;4.36;4.24;3.56;0.66
66834;SPS30;53743;51.100;5.874;2024-03-29T02:17:24;0.93;0.88;0.78;0.63;5.01;5.01;4.98;4.85;4.09;0.66
66834;SPS30;53743;51.100;5.874;2024-03-29T02:18:26;0.83;0.78;0.69;0.56;4.46;4.46;4.44;4.32;3.64;0.66
66834;SPS30;53743;51.100;5.874;2024-03-29T02:19:27;0.72;0.69;0.61;0.49;3.94;3.94;3.92;3.82;3.22;0.65
66834;SPS30;53743;51.100;5.874;2024-03-29T02:20:29;0.65;0.62;0.56;0.45;3.60;3.60;3.58;3.49;2.96;0.65
66834;SPS30;53743;51.100;5.874;2024-03-29T02:21:33;0.82;0.78;0.69;0.56;4.48;4.48;4.45;4.34;3.67;0.65
66834;SPS30;53743;51.100;5.874;2024-03-29T02:22:45;0.77;0.73;0.65;0.53;4.21;4.21;4.19;4.08;3.45;0.64
66834;SPS30;53743;51.100;5.874;2024-03-29T02:24:01;1.03;0.97;0.87;0.70;5.57;5.56;5.53;5.39;4.55;0.65
66834;SPS30;53743;51.100;5.874;2024-03-29T02:25:07;0.62;0.58;0.52;0.42;3.37;3.37;3.35;3.27;2.76;0.65
66834;SPS30;53743;51.100;5.874;2024-03-29T02:26:09;0.62;0.58;0.52;0.42;3.34;3.33;3.32;3.23;2.73;0.65
66834;SPS30;53743;51.100;5.874;2024-03-29T02:27:12;0.71;0.68;0.60;0.48;3.88;3.87;3.86;3.76;3.17;0.64
66834;SPS30;53743;51.100;5.874;2024-03-29T02:28:13;0.69;0.66;0.59;0.48;3.84;3.84;3.82;3.73;3.16;0.63
66834;SPS30;53743;51.100;5.874;2024-03-29T02:29:17;0.87;0.83;0.75;0.61;4.88;4.88;4.86;4.74;4.03;0.62
66834;SPS30;53743;51.100;5.874;2024-03-29T02:30:18;0.71;0.68;0.61;0.50;4.00;4.00;3.98;3.89;3.30;0.63
66834;SPS30;53743;51.100;5.874;2024-03-29T02:31:20;0.61;0.58;0.52;0.42;3.36;3.36;3.35;3.27;2.76;0.63
66834;SPS30;53743;51.100;5.874;2024-03-29T02:32:21;0.81;0.77;0.69;0.55;4.43;4.43;4.41;4.30;3.63;0.63
66834;SPS30;53743;51.100;5.874;2024-03-29T02:33:23;0.94;0.89;0.79;0.64;5.14;5.13;5.11;4.98;4.21;0.63
66834;SPS30;53743;51.100;5.874;2024-03-29T02:34:24;0.65;0.61;0.55;0.44;3.53;3.53;3.51;3.42;2.89;0.64
66834;SPS30;53743;51.100;5.874;2024-03-29T02:35:27;0.71;0.68;0.61;0.49;3.93;3.93;3.91;3.82;3.23;0.63
66834;SPS30;53743;51.100;5.874;2024-03-29T02:36:29;0.69;0.66;0.59;0.49;3.89;3.89;3.87;3.79;3.21;0.63
66834;SPS30;53743;51.100;5.874;2024-03-29T02:37:31;0.66;0.63;0.56;0.46;3.70;3.69;3.68;3.59;3.05;0.63
66834;SPS30;53743;51.100;5.874;2024-03-29T02:38:32;0.67;0.63;0.57;0.47;3.74;3.73;3.72;3.63;3.09;0.63
66834;SPS30;53743;51.100;5.874;2024-03-29T02:39:34;0.63;0.60;0.53;0.44;3.48;3.48;3.46;3.38;2.87;0.63
66834;SPS30;53743;51.100;5.874;2024-03-29T02:40:36;0.71;0.68;0.61;0.49;3.96;3.95;3.93;3.84;3.26;0.62
66834;SPS30;53743;51.100;5.874;2024-03-29T02:41:37;0.70;0.66;0.60;0.49;3.89;3.89;3.87;3.78;3.21;0.62
66834;SPS30;53743;51.100;5.874;2024-03-29T02:42:39;0.54;0.51;0.46;0.38;3.03;3.03;3.02;2.95;2.50;0.62
66834;SPS30;53743;51.100;5.874;2024-03-29T02:43:40;0.51;0.49;0.44;0.36;2.88;2.88;2.87;2.80;2.38;0.62
66834;SPS30;53743;51.100;5.874;2024-03-29T02:44:42;0.73;0.70;0.62;0.51;4.07;4.06;4.05;3.95;3.35;0.63
66834;SPS30;53743;51.100;5.874;2024-03-29T02:45:43;0.86;0.82;0.73;0.60;4.77;4.77;4.74;4.63;3.93;0.63
66834;SPS30;53743;51.100;5.874;2024-03-29T02:46:46;0.77;0.74;0.66;0.54;4.29;4.29;4.27;4.17;3.53;0.64
66834;SPS30;53743;51.100;5.874;2024-03-29T02:47:47;0.73;0.69;0.62;0.50;4.04;4.03;4.02;3.92;3.32;0.64
66834;SPS30;53743;51.100;5.874;2024-03-29T02:48:48;0.81;0.77;0.69;0.56;4.51;4.51;4.49;4.39;3.72;0.63
66834;SPS30;53743;51.100;5.874;2024-03-29T02:49:50;0.58;0.55;0.50;0.41;3.28;3.27;3.26;3.19;2.71;0.63
66834;SPS30;53743;51.100;5.874;2024-03-29T02:50:51;0.62;0.59;0.54;0.44;3.55;3.55;3.54;3.46;2.95;0.62
66834;SPS30;53743;51.100;5.874;2024-03-29T02:51:52;0.68;0.65;0.59;0.49;3.89;3.89;3.87;3.79;3.23;0.62
66834;SPS30;53743;51.100;5.874;2024-03-29T02:52:53;0.84;0.80;0.72;0.60;4.81;4.80;4.78;4.69;4.00;0.62
66834;SPS30;53743;51.100;5.874;2024-03-29T02:53:55;0.74;0.70;0.64;0.53;4.25;4.25;4.23;4.15;3.54;0.62
66834;SPS30;53743;51.100;5.874;2024-03-29T02:54:57;0.57;0.54;0.50;0.41;3.31;3.31;3.29;3.23;2.76;0.61
66834;SPS30;53743;51.100;5.874;2024-03-29T02:55:58;0.61;0.58;0.53;0.44;3.53;3.53;3.52;3.45;2.95;0.61
66834;SPS30;53743;51.100;5.874;2024-03-29T02:56:59;0.51;0.49;0.45;0.37;2.96;2.96;2.95;2.89;2.47;0.61
66834;SPS30;53743;51.100;5.874;2024-03-29T02:58:01;0.43;0.41;0.37;0.31;2.49;2.49;2.48;2.43;2.07;0.61
66834;SPS30;53743;51.100;5.874;2024-03-29T02:59:02;0.46;0.44;0.40;0.33;2.64;2.64;2.63;2.57;2.19;0.61
66834;SPS30;53743;51.100;5.874;2024-03-29T03:00:03;0.92;0.88;0.80;0.66;5.27;5.27;5.25;5.14;4.37;0.61
66834;SPS30;53743;51.100;5.874;2024-03-29T03:01:06;0.86;0.82;0.74;0.61;4.91;4.90;4.88;4.78;4.06;0.62
66834;SPS30;53743;51.100;5.874;2024-03-29T03:02:08;0.60;0.57;0.51;0.42;3.35;3.35;3.33;3.26;2.77;0.62
66834;SPS30;53743;51.100;5.874;2024-03-29T03:03:09;0.74;0.70;0.63;0.52;4.15;4.15;4.13;4.04;3.43;0.62
66834;SPS30;53743;51.100;5.874;2024-03-29T03:04:10;0.70;0.66;0.59;0.49;3.89;3.88;3.87;3.78;3.21;0.62
66834;SPS30;53743;51.100;5.874;2024-03-29T03:05:12;0.86;0.81;0.73;0.60;4.78;4.77;4.75;4.64;3.94;0.63
66834;SPS30;53743;51.100;5.874;2024-03-29T03:06:13;0.76;0.72;0.65;0.53;4.21;4.21;4.19;4.09;3.47;0.63
66834;SPS30;53743;51.100;5.874;2024-03-29T03:07:14;0.59;0.56;0.51;0.41;3.31;3.31;3.30;3.22;2.73;0.63
66834;SPS30;53743;51.100;5.874;2024-03-29T03:08:34;0.76;0.73;0.65;0.53;4.26;4.26;4.24;4.14;3.51;0.63
66834;SPS30;53743;51.100;5.874;2024-03-29T03:09:54;0.55;0.53;0.47;0.39;3.11;3.10;3.09;3.02;2.56;0.63
66834;SPS30;53743;51.100;5.874;2024-03-29T03:11:15;0.73;0.70;0.63;0.52;4.13;4.12;4.11;4.02;3.41;0.62
66834;SPS30;53743;51.100;5.874;2024-03-29T03:12:17;0.58;0.55;0.49;0.40;3.22;3.21;3.20;3.12;2.65;0.64
66834;SPS30;53743;51.100;5.874;2024-03-29T03:13:18;0.52;0.49;0.44;0.36;2.85;2.85;2.84;2.77;2.35;0.64
66834;SPS30;53743;51.100;5.874;2024-03-29T03:14:20;0.58;0.55;0.49;0.40;3.24;3.23;3.22;3.15;2.67;0.63
66834;SPS30;53743;51.100;5.874;2024-03-29T03:15:22;0.60;0.58;0.52;0.43;3.46;3.46;3.44;3.37;2.87;0.63
66834;SPS30;53743;51.100;5.874;2024-03-29T03:16:24;0.57;0.54;0.49;0.41;3.28;3.28;3.27;3.20;2.73;0.63
66834;SPS30;53743;51.100;5.874;2024-03-29T03:17:25;1.00;0.96;0.87;0.72;5.75;5.75;5.73;5.61;4.78;0.63
66834;SPS30;53743;51.100;5.874;2024-03-29T03:18:27;0.49;0.47;0.42;0.35;2.82;2.82;2.81;2.75;2.35;0.63
66834;SPS30;53743;51.100;5.874;2024-03-29T03:19:29;0.58;0.56;0.51;0.42;3.36;3.36;3.35;3.28;2.80;0.63
66834;SPS30;53743;51.100;5.874;2024-03-29T03:20:30;0.66;0.63;0.57;0.47;3.76;3.75;3.74;3.66;3.12;0.63
66834;SPS30;53743;51.100;5.874;2024-03-29T03:21:32;0.72;0.68;0.62;0.50;4.03;4.03;4.01;3.92;3.33;0.63
66834;SPS30;53743;51.100;5.874;2024-03-29T03:22:33;0.68;0.65;0.58;0.48;3.83;3.82;3.81;3.72;3.16;0.63
66834;SPS30;53743;51.100;5.874;2024-03-29T03:23:34;0.50;0.48;0.43;0.36;2.84;2.84;2.83;2.76;2.35;0.63
66834;SPS30;53743;51.100;5.874;2024-03-29T03:24:36;0.50;0.48;0.43;0.36;2.85;2.85;2.83;2.77;2.36;0.63
66834;SPS30;53743;51.100;5.874;2024-03-29T03:25:36;0.57;0.55;0.50;0.41;3.31;3.31;3.30;3.23;2.75;0.62
66834;SPS30;53743;51.100;5.874;2024-03-29T03:26:39;0.50;0.48;0.44;0.37;2.95;2.95;2.93;2.88;2.46;0.62
66834;SPS30;53743;51.100;5.874;2024-03-29T03:27:40;0.59;0.56;0.51;0.43;3.42;3.42;3.41;3.34;2.85;0.62
66834;SPS30;53743;51.100;5.874;2024-03-29T03:28:45;0.68;0.65;0.59;0.49;3.90;3.90;3.88;3.80;3.24;0.63
66834;SPS30;53743;51.100;5.874;2024-03-29T03:29:46;0.58;0.55;0.50;0.41;3.29;3.29;3.27;3.20;2.73;0.64
66834;SPS30;53743;51.100;5.874;2024-03-29T03:30:47;0.44;0.42;0.38;0.31;2.49;2.49;2.48;2.42;2.06;0.65
66834;SPS30;53743;51.100;5.874;2024-03-29T03:31:49;0.36;0.35;0.31;0.25;2.03;2.03;2.02;1.98;1.68;0.65
66834;SPS30;53743;51.100;5.874;2024-03-29T03:32:52;0.66;0.62;0.56;0.46;3.66;3.66;3.65;3.56;3.02;0.65
66834;SPS30;53743;51.100;5.874;2024-03-29T03:33:53;0.58;0.55;0.50;0.41;3.27;3.27;3.26;3.19;2.71;0.64
66834;SPS30;53743;51.100;5.874;2024-03-29T03:34:55;0.58;0.55;0.50;0.42;3.33;3.32;3.31;3.24;2.77;0.63
66834;SPS30;53743;51.100;5.874;2024-03-29T03:35:58;0.71;0.68;0.62;0.51;4.10;4.09;4.08;3.99;3.41;0.63
66834;SPS30;53743;51.100;5.874;2024-03-29T03:36:59;0.62;0.59;0.54;0.45;3.56;3.56;3.54;3.47;2.96;0.63
66834;SPS30;53743;51.100;5.874;2024-03-29T03:38:00;0.55;0.52;0.48;0.40;3.18;3.18;3.17;3.10;2.65;0.63
66834;SPS30;53743;51.100;5.874;2024-03-29T03:39:02;0.43;0.41;0.37;0.31;2.48;2.48;2.47;2.42;2.07;0.62
66834;SPS30;53743;51.100;5.874;2024-03-29T03:40:04;0.86;0.82;0.75;0.62;4.97;4.97;4.95;4.85;4.14;0.63
66834;SPS30;53743;51.100;5.874;2024-03-29T03:41:07;0.61;0.58;0.53;0.43;3.48;3.47;3.46;3.38;2.88;0.64
66834;SPS30;53743;51.100;5.874;2024-03-29T03:42:09;0.58;0.55;0.50;0.41;3.28;3.27;3.26;3.19;2.71;0.65
66834;SPS30;53743;51.100;5.874;2024-03-29T03:43:11;0.65;0.62;0.56;0.46;3.65;3.65;3.63;3.55;3.02;0.65
66834;SPS30;53743;51.100;5.874;2024-03-29T03:44:12;0.49;0.47;0.42;0.35;2.77;2.77;2.76;2.69;2.29;0.65
66834;SPS30;53743;51.100;5.874;2024-03-29T03:45:13;0.51;0.49;0.44;0.36;2.90;2.90;2.89;2.83;2.41;0.64
66834;SPS30;53743;51.100;5.874;2024-03-29T03:46:16;0.60;0.57;0.52;0.43;3.41;3.41;3.40;3.33;2.83;0.63
66834;SPS30;53743;51.100;5.874;2024-03-29T03:47:17;0.61;0.58;0.53;0.44;3.49;3.49;3.48;3.41;2.91;0.63
66834;SPS30;53743;51.100;5.874;2024-03-29T03:48:18;0.53;0.50;0.46;0.38;3.04;3.03;3.02;2.96;2.53;0.63
66834;SPS30;53743;51.100;5.874;2024-03-29T03:49:20;0.74;0.71;0.64;0.53;4.27;4.26;4.25;4.16;3.55;0.63
66834;SPS30;53743;51.100;5.874;2024-03-29T03:50:21;0.70;0.67;0.61;0.51;4.06;4.05;4.04;3.95;3.37;0.63
66834;SPS30;53743;51.100;5.874;2024-03-29T03:51:22;0.49;0.47;0.42;0.35;2.81;2.81;2.80;2.74;2.34;0.63
66834;SPS30;53743;51.100;5.874;2024-03-29T03:52:24;0.39;0.37;0.33;0.28;2.21;2.21;2.20;2.15;1.83;0.63
66834;SPS30;53743;51.100;5.874;2024-03-29T03:53:25;0.52;0.50;0.45;0.37;2.97;2.96;2.95;2.89;2.46;0.63
66834;SPS30;53743;51.100;5.874;2024-03-29T03:54:26;0.56;0.54;0.48;0.40;3.21;3.21;3.20;3.13;2.67;0.63
66834;SPS30;53743;51.100;5.874;2024-03-29T03:55:27;0.59;0.56;0.51;0.42;3.39;3.38;3.37;3.30;2.81;0.63
66834;SPS30;53743;51.100;5.874;2024-03-29T03:56:29;0.51;0.49;0.44;0.37;2.95;2.95;2.93;2.87;2.45;0.62
66834;SPS30;53743;51.100;5.874;2024-03-29T03:57:32;0.54;0.52;0.47;0.39;3.14;3.14;3.13;3.06;2.62;0.61
66834;SPS30;53743;51.100;5.874;2024-03-29T03:58:34;0.47;0.45;0.41;0.34;2.74;2.74;2.73;2.68;2.29;0.61
66834;SPS30;53743;51.100;5.874;2024-03-29T03:59:35;0.68;0.65;0.60;0.50;4.03;4.03;4.01;3.94;3.38;0.60
66834;SPS30;53743;51.100;5.874;2024-03-29T04:00:37;0.70;0.68;0.62;0.53;4.20;4.20;4.18;4.11;3.53;0.59
66834;SPS30;53743;51.100;5.874;2024-03-29T04:01:38;0.66;0.63;0.58;0.49;3.94;3.94;3.93;3.86;3.32;0.59
66834;SPS30;53743;51.100;5.874;2024-03-29T04:02:39;0.49;0.47;0.43;0.37;2.93;2.93;2.92;2.87;2.47;0.59
66834;SPS30;53743;51.100;5.874;2024-03-29T04:03:41;0.47;0.45;0.42;0.36;2.86;2.86;2.85;2.80;2.41;0.59